Hakuyuumaru — JD3219 — position and weather

sailwx.info

Track history (hours):
 
Tides and Currents Weather Stations Pressure Air Temp Water Temp Dewpoint Dewpoint Depression Visibility Wind Speed Wind Dir Waves Ship Positions

Hakuyuumaru

Last reported at 2014-Jul-24 14:33 UTC. Time now 2014-Jul-24 14:38 UTC.
Position N 35°17' E 139°45'.

Length 71 m; draft 4.5 m.

Type: Cargo ship. MMSI: 431002761.

Date/timePositionNaut miles runAvg speedWind from/ knotsBaromVisibWave heightAir tempDewpointWater temp
2014-Jul-24 14:33N 35°17' E 139°45'1010.0
2014-Jul-24 13:33N 35°08' E 139°47'10 9.8
2014-Jul-24 12:33N 34°58' E 139°43'12 8.8
2014-Jul-24 11:11N 34°53' E 139°57'6 9.8
2014-Jul-24 10:33N 34°56' E 140°03'28 9.3
2014-Jul-24 07:33N 35°15' E 140°29'1010.4
2014-Jul-24 06:33N 35°23' E 140°37'1010.5
2014-Jul-24 05:33N 35°31' E 140°45'1111.0
2014-Jul-24 04:32N 35°40' E 140°53'2210.5
2014-Jul-24 02:24N 36°02' E 140°57'3010.7
2014-Jul-23 23:33N 36°32' E 140°60'  
Track history (hours):
 
Tides and Currents Weather Stations Pressure Air Temp Water Temp Dewpoint Dewpoint Depression Visibility Wind Speed Wind Dir Waves Ship Positions

Hakuyuumaru

Last reported at 2014-Jul-24 14:33 UTC. Time now 2014-Jul-24 14:38 UTC.
Position N 35°17' E 139°45'.

Length 71 m; draft 4.5 m.

Type: Cargo ship. MMSI: 431002761.

Date/timePositionNaut miles runAvg speedWind from/ knotsBaromVisibWave heightAir tempDewpointWater temp
2014-Jul-24 14:33N 35°17' E 139°45'1010.0
2014-Jul-24 13:33N 35°08' E 139°47'10 9.8
2014-Jul-24 12:33N 34°58' E 139°43'12 8.8
2014-Jul-24 11:11N 34°53' E 139°57'6 9.8
2014-Jul-24 10:33N 34°56' E 140°03'28 9.3
2014-Jul-24 07:33N 35°15' E 140°29'1010.4
2014-Jul-24 06:33N 35°23' E 140°37'1010.5
2014-Jul-24 05:33N 35°31' E 140°45'1111.0
2014-Jul-24 04:32N 35°40' E 140°53'2210.5
2014-Jul-24 02:24N 36°02' E 140°57'3010.7
2014-Jul-23 23:33N 36°32' E 140°60'  

Dump ship's entire track history